Time;durP1;ratioP1;P1;durP2;ratioP2;P2;SDS_P1;SDS_P2;PMS_P1;PMS_P2;Temp;Humidity;BMP_temperature;BMP_pressure;BME280_temperature;BME280_humidity;BME280_pressure;Samples;Min_cycle;Max_cycle;Signal;HPM_P1;HPM_P2
2023/08/10 00:00:13;;;;;;;1.90;1.40;;;;;;;16.00;87.23;100934.81;5071196;28;20205;-75
2023/08/10 00:02:40;;;;;;;1.90;1.80;;;;;;;15.97;86.43;100948.06;5071509;28;20201;-75
2023/08/10 00:05:07;;;;;;;1.90;1.80;;;;;;;15.97;87.51;100948.06;5071475;28;20745;-75
2023/08/10 00:07:34;;;;;;;1.80;1.70;;;;;;;15.91;87.42;100950.91;5070319;28;20675;-76
2023/08/10 00:10:03;;;;;;;2.57;2.13;;;;;;;15.95;87.82;100947.25;5071301;28;20202;-75
2023/08/10 00:12:30;;;;;;;3.20;1.80;;;;;;;15.88;88.01;100946.63;5071109;28;20236;-75
2023/08/10 00:14:56;;;;;;;2.80;1.63;;;;;;;15.87;87.43;100954.56;5071049;28;20197;-76
2023/08/10 00:17:23;;;;;;;2.13;1.63;;;;;;;15.86;87.92;100939.69;5063770;28;20691;-76
2023/08/10 00:19:50;;;;;;;2.23;1.50;;;;;;;15.83;87.69;100952.94;5053658;28;20205;-75
2023/08/10 00:22:17;;;;;;;1.63;1.53;;;;;;;15.83;87.60;100948.53;5070624;28;20260;-76
2023/08/10 00:24:43;;;;;;;4.57;1.57;;;;;;;15.84;87.63;100954.69;5070904;28;20205;-76
2023/08/10 00:27:11;;;;;;;6.30;1.67;;;;;;;15.86;87.56;100952.84;5070466;28;20205;-76
2023/08/10 00:29:37;;;;;;;1.77;1.67;;;;;;;15.85;87.90;100949.34;5052464;28;20206;-76
2023/08/10 00:32:04;;;;;;;2.73;1.60;;;;;;;15.85;87.84;100951.13;5050984;28;20234;-76
2023/08/10 00:34:31;;;;;;;3.00;1.93;;;;;;;15.82;87.91;100951.25;5051469;28;20205;-76
2023/08/10 00:36:58;;;;;;;2.00;1.80;;;;;;;15.70;88.65;100952.47;5050499;28;20205;-76
2023/08/10 00:39:25;;;;;;;3.00;1.50;;;;;;;15.71;88.37;100946.25;5050944;28;20202;-75
2023/08/10 00:41:51;;;;;;;3.47;1.90;;;;;;;15.68;88.32;100941.97;5050654;28;20223;-76
2023/08/10 00:44:19;;;;;;;2.20;1.50;;;;;;;15.67;88.57;100945.50;5064802;28;20237;-75
2023/08/10 00:46:46;;;;;;;1.80;1.43;;;;;;;15.68;88.26;100949.88;5071195;28;20208;-75
2023/08/10 00:49:13;;;;;;;2.20;2.10;;;;;;;15.65;88.06;100957.84;5069400;28;20686;-76
2023/08/10 00:51:39;;;;;;;2.40;1.40;;;;;;;15.65;88.18;100955.22;5070050;28;20236;-75
2023/08/10 00:54:06;;;;;;;2.30;1.50;;;;;;;15.62;88.37;100965.00;5066025;28;20222;-75
2023/08/10 00:56:33;;;;;;;6.20;2.00;;;;;;;15.63;88.66;100953.56;5050191;28;20213;-75
2023/08/10 00:59:00;;;;;;;2.97;1.60;;;;;;;15.55;89.52;100947.66;5050247;28;20201;-75
2023/08/10 01:01:28;;;;;;;2.23;1.73;;;;;;;15.55;89.66;100931.88;5058599;28;20224;-76
2023/08/10 01:03:54;;;;;;;2.10;1.90;;;;;;;15.56;89.68;100928.31;5070562;28;20203;-75
2023/08/10 01:06:30;;;;;;;2.80;1.60;;;;;;;15.54;88.70;100949.44;5070222;28;20209;-75
2023/08/10 01:09:09;;;;;;;1.80;1.53;;;;;;;15.49;88.89;100953.97;5070364;28;20208;-76
2023/08/10 01:11:40;;;;;;;2.13;1.90;;;;;;;15.52;90.04;100935.47;5070046;28;20252;-76
2023/08/10 01:14:13;;;;;;;3.43;1.83;;;;;;;15.46;90.69;100926.00;5070467;28;20619;-75
2023/08/10 01:16:42;;;;;;;2.20;2.00;;;;;;;15.44;90.70;100913.78;5070710;28;20213;-74
2023/08/10 01:19:21;;;;;;;4.50;2.10;;;;;;;15.45;90.63;100921.63;5074057;28;20291;-76
2023/08/10 01:21:54;;;;;;;1.57;1.47;;;;;;;15.47;90.08;100937.38;5073630;28;20220;-76
2023/08/10 01:24:26;;;;;;;3.90;2.07;;;;;;;15.43;90.17;100933.97;5074513;28;20683;-76
2023/08/10 01:26:55;;;;;;;2.40;1.90;;;;;;;15.39;89.68;100948.13;5071385;28;20209;-76
2023/08/10 01:29:22;;;;;;;4.27;2.13;;;;;;;15.40;89.64;100955.16;5061037;28;20233;-75
2023/08/10 01:31:49;;;;;;;2.20;1.93;;;;;;;15.37;90.34;100944.69;5074457;28;20698;-75
2023/08/10 01:34:16;;;;;;;1.70;1.60;;;;;;;15.38;90.96;100927.13;5074318;28;20206;-75
2023/08/10 01:36:42;;;;;;;1.70;1.60;;;;;;;15.35;91.00;100922.00;5074031;28;20205;-75
2023/08/10 01:39:09;;;;;;;5.27;1.97;;;;;;;15.21;91.64;100920.63;5073708;28;20205;-75
2023/08/10 01:41:35;;;;;;;2.63;2.20;;;;;;;15.15;92.47;100912.09;5073713;28;20602;-75
2023/08/10 01:44:03;;;;;;;2.10;2.00;;;;;;;15.19;92.72;100897.94;5073763;28;20209;-75
2023/08/10 01:46:33;;;;;;;3.30;2.30;;;;;;;15.17;92.22;100903.22;5073670;28;20641;-75
2023/08/10 01:49:02;;;;;;;2.40;2.13;;;;;;;15.22;91.42;100916.22;5065638;28;20601;-75
2023/08/10 01:51:29;;;;;;;2.40;1.83;;;;;;;15.22;91.07;100934.63;5073071;28;20249;-75
2023/08/10 01:53:57;;;;;;;2.83;2.40;;;;;;;15.16;91.42;100938.31;5073034;28;20209;-75
2023/08/10 01:56:24;;;;;;;2.27;1.83;;;;;;;15.01;91.95;100934.38;5073731;28;20212;-75
2023/08/10 01:58:51;;;;;;;2.03;1.87;;;;;;;15.00;92.99;100905.50;5073032;28;20201;-76
2023/08/10 02:01:19;;;;;;;2.50;2.33;;;;;;;14.89;93.78;100898.78;5073601;28;20224;-75
2023/08/10 02:03:45;;;;;;;2.73;2.10;;;;;;;14.73;94.51;100875.63;5072729;28;20204;-75
2023/08/10 02:06:12;;;;;;;5.90;2.50;;;;;;;14.47;96.18;100859.69;5073743;28;20205;-75
2023/08/10 02:08:38;;;;;;;2.47;2.27;;;;;;;14.47;97.91;100822.91;5072881;28;20663;-75
2023/08/10 02:11:05;;;;;;;2.63;2.43;;;;;;;14.53;98.21;100810.50;5073767;28;20228;-75
2023/08/10 02:13:31;;;;;;;2.23;2.00;;;;;;;14.49;98.19;100797.47;5073526;28;20205;-76
2023/08/10 02:15:58;;;;;;;3.50;2.30;;;;;;;14.48;98.50;100803.59;5069602;28;20202;-75
2023/08/10 02:18:26;;;;;;;2.10;1.97;;;;;;;14.52;98.57;100795.66;5052913;28;20217;-75
2023/08/10 02:20:52;;;;;;;2.90;2.40;;;;;;;14.64;98.12;100804.03;5052293;28;20259;-75
2023/08/10 02:23:19;;;;;;;3.23;2.23;;;;;;;14.66;97.33;100818.00;5053159;28;20205;-75
2023/08/10 02:25:45;;;;;;;2.17;1.97;;;;;;;14.76;96.65;100842.25;5052332;28;20236;-75
2023/08/10 02:28:12;;;;;;;2.50;1.97;;;;;;;14.80;96.00;100864.03;5052685;28;20219;-75
2023/08/10 02:30:38;;;;;;;2.40;2.20;;;;;;;14.83;94.91;100880.59;5051732;28;20264;-75
2023/08/10 02:33:05;;;;;;;2.97;2.33;;;;;;;14.85;95.08;100894.53;5053083;28;20221;-75
2023/08/10 02:35:33;;;;;;;2.10;1.77;;;;;;;14.65;95.57;100894.25;5052121;28;20209;-75
2023/08/10 02:37:59;;;;;;;2.27;1.93;;;;;;;14.72;95.81;100887.91;5052442;28;20212;-75
2023/08/10 02:40:26;;;;;;;2.13;1.93;;;;;;;14.78;95.67;100889.50;5052487;28;20209;-76
2023/08/10 02:42:52;;;;;;;2.80;2.10;;;;;;;14.78;95.92;100879.84;5052147;28;20216;-76
2023/08/10 02:45:19;;;;;;;2.13;2.03;;;;;;;14.82;95.92;100878.84;5052747;28;20463;-75
2023/08/10 02:47:46;;;;;;;2.47;2.27;;;;;;;14.87;94.89;100892.72;5052490;28;20733;-75
2023/08/10 02:50:12;;;;;;;3.43;1.83;;;;;;;14.85;94.17;100917.34;5061938;28;20623;-75
2023/08/10 02:52:41;;;;;;;2.20;2.00;;;;;;;14.82;94.49;100922.66;5073165;28;20311;-76
2023/08/10 02:55:10;;;;;;;2.07;1.57;;;;;;;14.85;94.67;100918.19;5072069;28;20263;-75
2023/08/10 02:57:36;;;;;;;2.37;1.70;;;;;;;14.86;94.29;100924.31;5071642;28;20425;-75
2023/08/10 03:00:06;;;;;;;3.10;2.20;;;;;;;14.86;93.45;100938.31;5072313;28;20197;-75
2023/08/10 03:02:33;;;;;;;1.80;1.70;;;;;;;14.81;93.02;100947.25;5072538;28;20220;-75
2023/08/10 03:04:59;;;;;;;1.97;1.80;;;;;;;14.80;93.16;100959.50;5071342;28;20212;-75
2023/08/10 03:07:26;;;;;;;2.73;2.00;;;;;;;14.55;94.39;100947.91;5072806;28;20205;-75
2023/08/10 03:09:54;;;;;;;2.90;2.03;;;;;;;14.45;95.75;100927.16;5072429;28;20229;-75
2023/08/10 03:12:21;;;;;;;2.47;1.60;;;;;;;14.50;96.60;100904.25;5071019;28;20232;-76
2023/08/10 03:14:47;;;;;;;1.60;1.50;;;;;;;14.60;96.75;100889.13;5072019;28;20208;-75
2023/08/10 03:17:14;;;;;;;2.50;2.30;;;;;;;14.41;96.27;100901.91;5071837;28;20208;-76
2023/08/10 03:19:42;;;;;;;3.10;2.27;;;;;;;13.97;98.77;100875.03;5071437;28;20262;-75
2023/08/10 03:22:08;;;;;;;2.60;2.23;;;;;;;13.85;100.00;100828.13;5071633;28;20227;-75
2023/08/10 03:24:36;;;;;;;2.63;2.23;;;;;;;13.98;100.00;100803.28;5071776;28;20208;-75
2023/08/10 03:27:04;;;;;;;2.50;2.20;;;;;;;13.89;100.00;100801.78;5071469;28;20205;-75
2023/08/10 03:29:30;;;;;;;1.97;1.87;;;;;;;13.86;100.00;100793.13;5071623;28;20196;-75
2023/08/10 03:31:57;;;;;;;2.20;2.10;;;;;;;13.89;100.00;100785.16;5071344;28;20231;-75
2023/08/10 03:34:23;;;;;;;3.53;2.03;;;;;;;14.05;100.00;100783.84;5071386;28;20204;-75
2023/08/10 03:36:51;;;;;;;1.70;1.53;;;;;;;14.26;100.00;100794.63;5071147;28;20209;-75
2023/08/10 03:39:17;;;;;;;3.03;2.00;;;;;;;14.24;100.00;100810.44;5070808;28;20665;-75
2023/08/10 03:41:44;;;;;;;3.73;1.67;;;;;;;14.27;100.00;100823.50;5070320;28;20232;-75
2023/08/10 03:44:11;;;;;;;3.10;2.10;;;;;;;14.36;99.62;100840.75;5071371;28;20197;-75
2023/08/10 03:46:38;;;;;;;1.87;1.77;;;;;;;14.40;98.97;100867.78;5072165;28;20204;-75
2023/08/10 03:49:05;;;;;;;2.13;1.80;;;;;;;14.41;97.80;100888.75;5071487;28;20219;-75
2023/08/10 03:51:31;;;;;;;2.07;1.50;;;;;;;14.40;97.34;100907.19;5070355;28;20228;-75
2023/08/10 03:53:57;;;;;;;2.00;1.80;;;;;;;14.38;97.38;100911.63;5071146;28;20201;-75
2023/08/10 03:56:24;;;;;;;3.60;2.63;;;;;;;14.38;96.60;100937.88;5071417;28;20577;-75
2023/08/10 03:58:50;;;;;;;3.10;1.70;;;;;;;14.30;97.06;100943.34;5071223;28;20282;-75
2023/08/10 04:01:19;;;;;;;3.87;1.90;;;;;;;14.35;97.41;100930.06;5071311;28;20216;-76
2023/08/10 04:03:45;;;;;;;2.80;2.43;;;;;;;14.37;97.56;100925.63;5070916;28;20208;-75
2023/08/10 04:06:12;;;;;;;4.47;1.80;;;;;;;14.39;97.25;100929.06;5062967;28;20209;-75
2023/08/10 04:08:38;;;;;;;3.07;1.80;;;;;;;14.36;96.69;100939.69;5070838;28;20204;-75
2023/08/10 04:11:05;;;;;;;2.40;1.97;;;;;;;14.28;96.93;100951.25;5071168;28;20621;-76
2023/08/10 04:13:31;;;;;;;2.83;1.70;;;;;;;14.26;97.10;100937.28;5070600;28;20224;-76
2023/08/10 04:15:58;;;;;;;3.77;2.37;;;;;;;14.13;97.54;100933.25;5061107;28;20659;-76
2023/08/10 04:18:26;;;;;;;4.23;1.90;;;;;;;13.65;99.77;100916.06;5051295;28;20204;-75
2023/08/10 04:20:53;;;;;;;2.83;1.93;;;;;;;13.35;100.00;100854.72;5050128;28;20231;-75
2023/08/10 04:23:20;;;;;;;3.10;2.40;;;;;;;13.29;100.00;100826.00;5050829;28;20581;-75
2023/08/10 04:25:47;;;;;;;3.93;2.10;;;;;;;12.99;100.00;100802.22;5050732;28;20203;-75
2023/08/10 04:28:13;;;;;;;3.60;2.20;;;;;;;12.80;100.00;100770.34;5063083;28;20203;-75
2023/08/10 04:30:40;;;;;;;4.33;2.73;;;;;;;12.75;100.00;100755.66;5069987;28;20223;-75
2023/08/10 04:33:06;;;;;;;3.20;2.37;;;;;;;12.69;100.00;100736.53;5070122;28;20228;-75
2023/08/10 04:35:35;;;;;;;4.13;2.00;;;;;;;12.82;100.00;100710.91;5069838;28;20750;-75
2023/08/10 04:38:02;;;;;;;2.47;1.97;;;;;;;12.96;100.00;100712.34;5071108;28;20211;-75
2023/08/10 04:40:29;;;;;;;4.37;2.33;;;;;;;13.02;100.00;100723.56;5071296;28;20209;-76
2023/08/10 04:42:55;;;;;;;2.13;2.00;;;;;;;13.03;100.00;100730.50;5070262;28;20211;-76
2023/08/10 04:45:22;;;;;;;3.43;2.07;;;;;;;13.23;100.00;100737.88;5071119;28;20663;-75
2023/08/10 04:47:49;;;;;;;3.03;2.03;;;;;;;13.34;100.00;100770.84;5070035;28;20218;-76
2023/08/10 04:50:15;;;;;;;3.03;1.70;;;;;;;13.49;100.00;100800.16;5061216;28;20220;-76
2023/08/10 04:52:43;;;;;;;1.60;1.50;;;;;;;13.54;100.00;100834.16;5072057;28;20591;-75
2023/08/10 04:55:10;;;;;;;1.90;1.77;;;;;;;13.62;100.00;100855.81;5075362;28;20208;-75
2023/08/10 04:57:38;;;;;;;2.80;1.60;;;;;;;13.72;100.00;100882.69;5073869;28;20208;-75
2023/08/10 05:00:09;;;;;;;3.07;2.03;;;;;;;13.78;100.00;100919.28;5073488;28;20588;-75
2023/08/10 05:02:36;;;;;;;2.73;1.83;;;;;;;13.29;99.88;100963.22;5074948;28;20219;-75
2023/08/10 05:05:04;;;;;;;6.13;2.23;;;;;;;12.90;100.00;100929.09;5074140;28;20222;-75
2023/08/10 05:07:31;;;;;;;2.67;1.80;;;;;;;12.65;100.00;100891.19;5075131;28;20201;-75
2023/08/10 05:09:59;;;;;;;2.00;1.70;;;;;;;12.48;100.00;100847.00;5075288;28;20213;-75
2023/08/10 05:12:25;;;;;;;5.47;2.13;;;;;;;12.49;100.00;100817.31;5061628;28;20241;-75
2023/08/10 05:14:52;;;;;;;2.60;2.40;;;;;;;12.60;100.00;100789.13;5054400;28;20735;-75
2023/08/10 05:17:18;;;;;;;4.10;2.10;;;;;;;12.76;100.00;100784.41;5054762;28;20585;-75
2023/08/10 05:19:45;;;;;;;2.13;1.73;;;;;;;12.94;100.00;100792.75;5054664;28;20198;-75
2023/08/10 05:22:11;;;;;;;3.57;2.40;;;;;;;13.09;100.00;100803.72;5065327;28;20235;-75
2023/08/10 05:24:38;;;;;;;2.87;1.87;;;;;;;13.26;100.00;100826.06;5074793;28;20206;-75
2023/08/10 05:27:06;;;;;;;2.87;2.30;;;;;;;13.41;100.00;100833.59;5074396;28;20212;-75
2023/08/10 05:29:32;;;;;;;2.40;1.77;;;;;;;13.59;100.00;100845.38;5074279;28;20199;-76
2023/08/10 05:31:59;;;;;;;2.30;2.10;;;;;;;13.72;100.00;100855.59;5074472;28;20269;-75
2023/08/10 05:34:26;;;;;;;2.90;1.70;;;;;;;13.90;100.00;100870.88;5074450;28;20226;-75
2023/08/10 05:36:52;;;;;;;2.10;1.80;;;;;;;14.06;100.00;100890.56;5074197;28;20208;-76
2023/08/10 05:39:19;;;;;;;4.67;2.20;;;;;;;14.17;100.00;100926.16;5066421;28;20553;-75
2023/08/10 05:41:45;;;;;;;2.83;2.60;;;;;;;14.32;100.00;100954.66;5074248;28;20223;-76
2023/08/10 05:44:13;;;;;;;4.03;2.13;;;;;;;14.34;100.00;100968.59;5074011;28;20203;-75
2023/08/10 05:46:39;;;;;;;2.57;2.00;;;;;;;14.38;100.00;100966.78;5074284;28;20751;-75
2023/08/10 05:49:06;;;;;;;2.37;2.17;;;;;;;14.48;100.00;100976.13;5074120;28;20212;-75
2023/08/10 05:51:32;;;;;;;2.67;2.20;;;;;;;14.53;100.00;100976.88;5073750;28;20236;-76
2023/08/10 05:53:59;;;;;;;3.23;2.03;;;;;;;14.60;100.00;100999.47;5074342;28;20228;-76
2023/08/10 05:56:26;;;;;;;3.77;2.23;;;;;;;14.58;99.17;101009.16;5073937;28;20208;-76
2023/08/10 05:58:53;;;;;;;5.40;2.77;;;;;;;14.07;100.00;101012.16;5074052;28;20212;-75
2023/08/10 06:01:21;;;;;;;2.40;1.80;;;;;;;13.81;100.00;100992.66;5066065;28;20254;-75
2023/08/10 06:03:48;;;;;;;6.03;2.70;;;;;;;13.37;100.00;100928.13;5073240;28;20204;-75
2023/08/10 06:06:14;;;;;;;3.67;3.37;;;;;;;13.25;100.00;100868.91;5073404;28;20219;-75
2023/08/10 06:08:41;;;;;;;5.27;3.60;;;;;;;13.38;100.00;100838.03;5059383;28;20212;-76
2023/08/10 06:11:08;;;;;;;6.70;4.50;;;;;;;13.23;100.00;100839.25;5053637;28;20240;-75
2023/08/10 06:13:37;;;;;;;4.40;4.00;;;;;;;13.39;100.00;100840.63;5053474;28;20247;-75
2023/08/10 06:16:04;;;;;;;4.87;4.07;;;;;;;13.54;100.00;100841.16;5053956;28;20262;-75
2023/08/10 06:18:32;;;;;;;5.00;3.80;;;;;;;13.64;100.00;100856.66;5053676;28;20288;-75
2023/08/10 06:20:58;;;;;;;4.67;3.97;;;;;;;13.60;100.00;100849.75;5053038;28;20311;-75
2023/08/10 06:23:25;;;;;;;4.77;3.77;;;;;;;13.68;100.00;100845.16;5053767;28;20205;-75
2023/08/10 06:25:51;;;;;;;3.60;3.30;;;;;;;13.93;100.00;100854.16;5055832;28;20208;-75
2023/08/10 06:28:18;;;;;;;3.73;3.43;;;;;;;14.03;100.00;100853.03;5067631;28;20203;-75
2023/08/10 06:30:44;;;;;;;4.63;3.20;;;;;;;14.23;100.00;100869.13;5068532;28;20328;-75
2023/08/10 06:33:11;;;;;;;3.37;3.10;;;;;;;14.40;100.00;100896.69;5073657;28;20267;-76
2023/08/10 06:35:40;;;;;;;3.07;2.77;;;;;;;14.53;100.00;100907.69;5072777;28;20294;-75
2023/08/10 06:38:07;;;;;;;3.57;3.27;;;;;;;14.49;100.00;100948.97;5073411;28;20208;-76
2023/08/10 06:40:34;;;;;;;3.97;3.43;;;;;;;14.42;100.00;100944.78;5072372;28;20220;-75
2023/08/10 06:43:00;;;;;;;4.30;3.43;;;;;;;14.23;100.00;100950.53;5073721;28;20209;-75
2023/08/10 06:45:27;;;;;;;4.27;3.43;;;;;;;14.36;100.00;100940.53;5073612;28;20215;-75
2023/08/10 06:47:53;;;;;;;4.77;3.30;;;;;;;14.46;100.00;100944.63;5073229;28;20204;-75
2023/08/10 06:50:20;;;;;;;4.37;3.80;;;;;;;14.52;100.00;100964.63;5072759;28;20222;-75
2023/08/10 06:52:48;;;;;;;3.67;3.27;;;;;;;14.55;100.00;100975.06;5073037;28;20201;-76
2023/08/10 06:55:14;;;;;;;3.20;3.00;;;;;;;14.68;100.00;100965.09;5072697;28;20235;-75
2023/08/10 06:57:41;;;;;;;4.47;3.23;;;;;;;14.80;100.00;100970.03;5072751;28;20214;-76
2023/08/10 07:00:13;;;;;;;3.23;3.00;;;;;;;14.89;100.00;100956.63;5072580;28;20282;-75
2023/08/10 07:02:40;;;;;;;3.67;3.30;;;;;;;15.01;100.00;100978.22;5073135;28;20614;-75
2023/08/10 07:05:08;;;;;;;3.43;3.00;;;;;;;15.00;100.00;101001.00;5072432;28;20647;-75
2023/08/10 07:07:34;;;;;;;3.30;3.00;;;;;;;15.11;100.00;101037.53;5072573;28;20214;-75
2023/08/10 07:10:05;;;;;;;3.13;2.77;;;;;;;14.82;98.50;101081.22;5072626;28;20588;-75
2023/08/10 07:12:31;;;;;;;3.10;2.53;;;;;;;14.82;99.55;101083.00;5052661;28;20243;-76
2023/08/10 07:14:58;;;;;;;3.17;2.60;;;;;;;14.83;98.01;101092.63;5050371;28;20224;-76
2023/08/10 07:17:24;;;;;;;2.93;2.57;;;;;;;14.91;96.92;101111.69;5052439;28;20678;-76
2023/08/10 07:19:51;;;;;;;2.67;2.47;;;;;;;15.04;96.38;101123.63;5052649;28;20201;-76
2023/08/10 07:22:17;;;;;;;3.43;2.00;;;;;;;15.11;96.94;101126.94;5052024;28;20228;-76
2023/08/10 07:24:43;;;;;;;2.83;2.63;;;;;;;15.08;96.87;101127.00;5071275;28;20223;-76
2023/08/10 07:27:11;;;;;;;4.60;2.40;;;;;;;15.10;96.17;101140.97;5071912;28;20202;-75
2023/08/10 07:29:38;;;;;;;4.27;2.87;;;;;;;15.27;96.12;101141.38;5066690;28;20205;-75
2023/08/10 07:32:06;;;;;;;4.87;2.33;;;;;;;15.37;96.08;101138.50;5051550;28;20226;-75
2023/08/10 07:34:32;;;;;;;2.63;2.20;;;;;;;15.43;92.09;101194.44;5051604;28;20268;-75
2023/08/10 07:36:59;;;;;;;3.23;1.90;;;;;;;15.59;93.06;101199.28;5050742;28;20602;-75
2023/08/10 07:39:25;;;;;;;2.07;1.40;;;;;;;15.72;90.04;101236.66;5052048;28;20198;-75
2023/08/10 07:41:52;;;;;;;1.93;1.00;;;;;;;15.75;84.44;101326.13;5051680;28;20645;-75
2023/08/10 07:44:20;;;;;;;1.70;1.17;;;;;;;15.89;81.33;101421.41;5052079;28;20205;-75
2023/08/10 07:46:48;;;;;;;1.07;1.00;;;;;;;15.94;78.99;101514.31;5051746;28;20220;-75
2023/08/10 07:49:15;;;;;;;2.30;1.50;;;;;;;16.05;81.41;101492.97;5053911;28;20224;-75
2023/08/10 07:51:46;;;;;;;2.83;1.80;;;;;;;16.09;83.48;101465.66;5071897;28;20228;-75
2023/08/10 07:54:13;;;;;;;1.97;1.33;;;;;;;16.12;85.11;101409.44;5071842;28;20232;-75
2023/08/10 07:56:39;;;;;;;1.47;1.10;;;;;;;16.04;82.54;101431.53;5071590;28;20212;-74
2023/08/10 07:59:06;;;;;;;1.57;1.40;;;;;;;15.98;83.88;101423.81;5071481;28;20288;-74
2023/08/10 08:01:33;;;;;;;1.70;1.10;;;;;;;15.94;81.26;101473.97;5071661;28;20263;-75
2023/08/10 08:04:00;;;;;;;3.23;1.23;;;;;;;16.01;80.86;101478.16;5071496;28;20201;-74
2023/08/10 08:06:27;;;;;;;2.10;1.73;;;;;;;16.03;79.24;101503.53;5070492;28;20209;-75
2023/08/10 08:08:53;;;;;;;2.67;1.07;;;;;;;16.17;79.62;101505.84;5071671;28;20298;-75
2023/08/10 08:11:20;;;;;;;1.87;1.23;;;;;;;16.19;81.42;101488.22;5071239;28;20229;-74
2023/08/10 08:13:46;;;;;;;1.23;1.00;;;;;;;16.30;81.20;101466.88;5071165;28;20222;-74
2023/08/10 08:16:13;;;;;;;2.10;1.17;;;;;;;16.37;78.56;101502.72;5071377;28;20208;-75
2023/08/10 08:18:48;;;;;;;2.23;1.40;;;;;;;16.46;76.70;101551.69;5071468;28;20201;-75
2023/08/10 08:21:17;;;;;;;3.17;1.30;;;;;;;16.59;77.02;101568.91;5070729;28;20232;-75
2023/08/10 08:23:44;;;;;;;3.17;1.70;;;;;;;16.53;73.11;101647.28;5071425;28;20198;-75
2023/08/10 08:26:11;;;;;;;1.47;1.37;;;;;;;16.61;74.93;101662.00;5070951;28;20216;-74
2023/08/10 08:28:37;;;;;;;2.27;1.40;;;;;;;16.73;74.75;101620.41;5070703;28;20210;-75
2023/08/10 08:31:14;;;;;;;1.47;1.13;;;;;;;16.81;75.20;101626.38;5071062;28;20229;-75
2023/08/10 08:33:41;;;;;;;2.97;1.40;;;;;;;16.86;71.39;101682.53;5071227;28;20229;-75
2023/08/10 08:36:10;;;;;;;1.30;0.90;;;;;;;16.88;69.12;101755.41;5070653;28;20708;-74
2023/08/10 08:38:37;;;;;;;1.63;0.90;;;;;;;17.02;66.03;101830.72;5071138;28;20208;-75
2023/08/10 08:41:05;;;;;;;1.30;1.10;;;;;;;17.10;65.03;101904.41;5070725;28;20234;-74
2023/08/10 08:43:33;;;;;;;3.47;1.33;;;;;;;17.18;63.69;101928.84;5062966;28;20683;-75
2023/08/10 08:46:00;;;;;;;1.77;0.90;;;;;;;17.22;63.80;101956.91;5070526;28;20331;-75
2023/08/10 08:48:28;;;;;;;1.63;0.80;;;;;;;17.33;64.27;101968.13;5069711;28;20205;-75
2023/08/10 08:50:55;;;;;;;1.37;1.27;;;;;;;17.43;67.51;101902.78;5069082;28;20271;-75
2023/08/10 08:53:23;;;;;;;3.80;1.40;;;;;;;17.54;69.37;101828.56;5070629;28;20212;-75
2023/08/10 08:55:50;;;;;;;1.87;1.60;;;;;;;17.65;71.47;101744.66;5070917;28;20210;-75
2023/08/10 08:58:18;;;;;;;1.13;0.83;;;;;;;17.45;64.78;101827.91;5053067;28;20216;-75
2023/08/10 09:00:49;;;;;;;1.83;1.33;;;;;;;17.46;66.70;101848.13;5064552;28;20325;-75
2023/08/10 09:03:16;;;;;;;4.43;1.30;;;;;;;17.45;67.04;101841.09;5071126;28;20215;-75
2023/08/10 09:05:43;;;;;;;1.50;1.10;;;;;;;17.57;67.25;101832.00;5070703;28;20215;-75
2023/08/10 09:08:09;;;;;;;2.30;1.87;;;;;;;17.65;67.31;101813.31;5070967;28;20311;-75
2023/08/10 09:10:37;;;;;;;1.87;1.67;;;;;;;17.71;66.90;101830.78;5070551;28;20217;-75
2023/08/10 09:13:11;;;;;;;2.43;1.23;;;;;;;17.92;69.33;101763.31;5071373;28;20230;-75
2023/08/10 09:15:38;;;;;;;2.07;1.40;;;;;;;18.04;66.52;101789.41;5070705;28;20229;-75
2023/08/10 09:18:05;;;;;;;2.00;1.27;;;;;;;18.00;66.20;101841.47;5071033;28;20556;-75
2023/08/10 09:20:32;;;;;;;3.17;1.10;;;;;;;17.82;64.79;101847.22;5070080;28;20724;-75
2023/08/10 09:22:59;;;;;;;2.13;1.03;;;;;;;17.93;65.34;101858.38;5070921;28;20203;-75
2023/08/10 09:25:26;;;;;;;0.90;0.77;;;;;;;17.81;65.00;101872.75;5060254;28;20562;-74
2023/08/10 09:27:54;;;;;;;2.47;1.10;;;;;;;17.92;65.42;101867.25;5050610;28;20203;-75
2023/08/10 09:30:21;;;;;;;1.60;0.80;;;;;;;17.53;60.08;101967.66;5059936;28;20263;-75
2023/08/10 09:32:47;;;;;;;1.13;1.00;;;;;;;17.72;64.54;101944.31;5070807;28;20198;-75
2023/08/10 09:35:16;;;;;;;1.47;1.00;;;;;;;17.87;62.07;101956.31;5069798;28;20238;-75
2023/08/10 09:37:43;;;;;;;1.63;1.10;;;;;;;18.12;63.32;101929.25;5055165;28;20294;-75
2023/08/10 09:40:11;;;;;;;2.20;0.90;;;;;;;18.18;62.27;101927.31;5074695;28;20207;-75
2023/08/10 09:42:39;;;;;;;1.50;0.90;;;;;;;17.88;61.05;101973.00;5074460;28;20212;-75
2023/08/10 09:45:09;;;;;;;4.33;1.33;;;;;;;17.58;61.58;101988.66;5074226;28;20202;-75
2023/08/10 09:47:37;;;;;;;2.30;1.00;;;;;;;17.70;63.12;101939.97;5074195;28;20205;-75
2023/08/10 09:50:06;;;;;;;1.00;0.90;;;;;;;17.66;61.77;101955.03;5073501;28;20214;-75
2023/08/10 09:52:36;;;;;;;1.93;1.03;;;;;;;17.53;62.21;101945.66;5074137;28;20229;-75
2023/08/10 09:55:04;;;;;;;2.87;1.00;;;;;;;17.81;63.02;101930.88;5074270;28;20226;-75
2023/08/10 09:57:30;;;;;;;1.30;0.83;;;;;;;17.78;60.23;101975.88;5073780;28;20693;-74
2023/08/10 09:59:57;;;;;;;1.63;1.00;;;;;;;17.90;60.75;101993.22;5073918;28;20198;-75
2023/08/10 10:02:26;;;;;;;1.73;0.80;;;;;;;18.02;59.32;102002.63;5074017;28;20231;-74
2023/08/10 10:04:53;;;;;;;2.57;1.10;;;;;;;18.25;60.96;101988.78;5073271;28;20196;-75
2023/08/10 10:07:24;;;;;;;1.50;0.90;;;;;;;18.35;60.55;101995.56;5073448;28;20214;-75
2023/08/10 10:09:52;;;;;;;1.93;0.93;;;;;;;18.42;59.80;102004.22;5074004;28;20734;-75
2023/08/10 10:12:19;;;;;;;1.80;1.17;;;;;;;18.44;60.08;102003.28;5073431;28;20225;-75
2023/08/10 10:14:47;;;;;;;5.20;0.83;;;;;;;18.16;58.97;102018.13;5073569;28;20715;-74
2023/08/10 10:17:16;;;;;;;5.60;1.20;;;;;;;18.17;60.39;101996.91;5073743;28;20229;-75
2023/08/10 10:19:45;;;;;;;1.57;0.77;;;;;;;18.15;61.36;101971.44;5073973;28;20245;-74
2023/08/10 10:22:12;;;;;;;1.77;1.00;;;;;;;18.09;59.85;101966.31;5073534;28;20230;-75
2023/08/10 10:24:41;;;;;;;0.83;0.80;;;;;;;18.27;60.93;101957.91;5073687;28;20199;-75
2023/08/10 10:27:10;;;;;;;1.30;0.93;;;;;;;18.39;60.46;101948.78;5073158;28;20677;-75
2023/08/10 10:29:38;;;;;;;2.03;1.17;;;;;;;18.45;58.22;102007.66;5073398;28;20724;-79
2023/08/10 10:32:06;;;;;;;0.83;0.70;;;;;;;18.46;54.90;102070.22;5075319;28;20234;-79
2023/08/10 10:34:33;;;;;;;1.20;1.07;;;;;;;18.46;54.02;102138.97;5075563;28;20263;-76
2023/08/10 10:37:09;;;;;;;1.53;0.80;;;;;;;18.50;53.59;102181.22;5073115;28;20236;-77
2023/08/10 10:39:36;;;;;;;2.07;0.70;;;;;;;18.68;55.09;102187.81;5073447;28;20254;-76
2023/08/10 10:42:03;;;;;;;0.87;0.73;;;;;;;18.90;54.66;102137.91;5074052;28;20289;-78
2023/08/10 10:45:01;;;;;;;1.33;1.20;;;;;;;18.95;53.73;102188.91;5054771;28;20715;-76
2023/08/10 10:47:34;;;;;;;1.30;0.63;;;;;;;19.06;53.39;102202.75;5070227;28;20242;-76
2023/08/10 10:50:01;;;;;;;1.70;0.90;;;;;;;19.03;52.46;102221.38;5071048;28;20226;-76
2023/08/10 10:52:38;;;;;;;1.00;0.70;;;;;;;19.20;53.36;102223.56;5054940;28;20259;-76
2023/08/10 10:55:10;;;;;;;1.33;0.70;;;;;;;19.27;54.63;102185.44;5053032;28;20227;-76
2023/08/10 10:57:37;;;;;;;1.53;0.77;;;;;;;19.23;53.08;102183.78;5072220;28;20219;-77
2023/08/10 11:00:05;;;;;;;2.70;0.60;;;;;;;19.20;52.43;102213.81;5072587;28;20211;-76
2023/08/10 11:02:31;;;;;;;0.93;0.73;;;;;;;19.35;52.92;102241.69;5061104;28;20224;-76
2023/08/10 11:04:58;;;;;;;1.20;0.80;;;;;;;19.60;54.16;102172.13;5051136;28;20201;-76
2023/08/10 11:07:24;;;;;;;1.63;1.10;;;;;;;19.58;50.68;102225.19;5052802;28;20213;-76
2023/08/10 11:09:53;;;;;;;1.50;0.90;;;;;;;19.63;51.45;102248.88;5052195;28;20266;-76
2023/08/10 11:12:19;;;;;;;1.10;0.70;;;;;;;19.68;51.80;102254.03;5052551;28;20232;-76
2023/08/10 11:14:46;;;;;;;1.13;0.67;;;;;;;19.61;51.72;102263.97;5052588;28;20220;-76
2023/08/10 11:17:13;;;;;;;1.10;0.90;;;;;;;19.69;50.93;102267.25;5052333;28;20217;-76
2023/08/10 11:19:39;;;;;;;1.20;0.90;;;;;;;19.82;51.20;102283.69;5052783;28;20216;-76
2023/08/10 11:22:06;;;;;;;1.20;0.60;;;;;;;19.98;50.61;102268.22;5052362;28;20229;-76